createdAt,value
2018-03-28T00:01:43.773Z,10.52
2018-03-28T00:04:09.720Z,10.73
2018-03-28T00:06:36.412Z,11.70
2018-03-28T00:09:02.501Z,10.63
2018-03-28T00:11:28.456Z,12.73
2018-03-28T00:13:54.441Z,10.87
2018-03-28T00:16:21.281Z,10.25
2018-03-28T00:18:47.997Z,10.43
2018-03-28T00:21:13.956Z,10.18
2018-03-28T00:23:40.056Z,12.43
2018-03-28T00:26:06.746Z,11.12
2018-03-28T00:28:32.734Z,9.98
2018-03-28T00:30:58.737Z,10.75
2018-03-28T00:33:25.481Z,11.82
2018-03-28T00:35:51.444Z,10.18
2018-03-28T00:38:17.554Z,13.18
2018-03-28T00:40:43.542Z,10.27
2018-03-28T00:43:10.234Z,10.55
2018-03-28T00:45:36.217Z,11.45
2018-03-28T00:48:02.184Z,11.93
2018-03-28T00:50:28.302Z,9.77
2018-03-28T00:52:54.260Z,10.25
2018-03-28T00:55:20.265Z,11.40
2018-03-28T00:57:46.222Z,11.35
2018-03-28T01:00:12.208Z,10.73
2018-03-28T01:02:38.161Z,11.18
2018-03-28T01:05:04.144Z,11.57
2018-03-28T01:07:30.105Z,9.35
2018-03-28T01:09:56.941Z,10.35
2018-03-28T01:12:22.928Z,9.30
2018-03-28T01:14:49.101Z,10.82
2018-03-28T01:17:15.849Z,10.93
2018-03-28T01:19:42.532Z,9.02
2018-03-28T01:22:08.620Z,8.50
2018-03-28T01:24:35.317Z,9.80
2018-03-28T01:27:01.289Z,9.23
2018-03-28T01:29:27.229Z,8.88
2018-03-28T01:31:53.205Z,9.60
2018-03-28T01:34:19.172Z,9.38
2018-03-28T01:36:45.164Z,10.52
2018-03-28T01:39:11.865Z,18.25
2018-03-28T01:41:37.976Z,23.92
2018-03-28T01:44:03.967Z,16.42
2018-03-28T01:46:29.924Z,27.05
2018-03-28T01:48:55.905Z,55.40
2018-03-28T01:51:21.872Z,90.55
2018-03-28T01:53:47.993Z,65.53
2018-03-28T01:56:13.945Z,39.63
2018-03-28T01:58:39.897Z,42.33
2018-03-28T02:01:05.901Z,21.73
2018-03-28T02:03:32.613Z,24.70
2018-03-28T02:05:58.585Z,27.37
2018-03-28T02:08:24.580Z,15.35
2018-03-28T02:10:50.669Z,10.35
2018-03-28T02:13:16.625Z,9.07
2018-03-28T02:15:42.736Z,7.37
2018-03-28T02:18:08.693Z,6.62
2018-03-28T02:20:34.693Z,6.20
2018-03-28T02:23:00.674Z,7.60
2018-03-28T02:25:26.600Z,7.07
2018-03-28T02:27:52.686Z,6.93
2018-03-28T02:30:18.651Z,6.95
2018-03-28T02:32:44.638Z,6.50
2018-03-28T02:35:10.606Z,6.00
2018-03-28T02:37:36.597Z,5.75
2018-03-28T02:40:02.550Z,5.50
2018-03-28T02:42:28.500Z,5.60
2018-03-28T02:44:54.595Z,5.33
2018-03-28T02:47:20.549Z,5.80
2018-03-28T02:49:47.280Z,6.90
2018-03-28T02:52:13.261Z,5.87
2018-03-28T02:54:39.254Z,5.37
2018-03-28T02:57:05.222Z,5.07
2018-03-28T02:59:31.313Z,5.05
2018-03-28T03:01:57.265Z,5.28
2018-03-28T03:04:23.237Z,4.60
2018-03-28T03:06:49.923Z,3.95
2018-03-28T03:09:15.913Z,4.93
2018-03-28T03:11:41.872Z,4.12
2018-03-28T03:14:08.090Z,4.03
2018-03-28T03:16:34.068Z,4.82
2018-03-28T03:19:00.811Z,3.95
2018-03-28T03:21:27.508Z,5.37
2018-03-28T03:23:53.512Z,4.65
2018-03-28T03:26:19.457Z,4.60
2018-03-28T03:28:45.413Z,4.40
2018-03-28T03:31:11.500Z,7.00
2018-03-28T03:33:37.457Z,4.72
2018-03-28T03:36:04.172Z,5.67
2018-03-28T03:38:30.128Z,4.72
2018-03-28T03:40:56.113Z,5.00
2018-03-28T03:43:22.070Z,4.65
2018-03-28T03:45:48.829Z,4.20
2018-03-28T03:48:14.796Z,4.30
2018-03-28T03:50:40.761Z,3.80
2018-03-28T03:53:06.726Z,5.00
2018-03-28T03:55:32.843Z,5.30
2018-03-28T03:57:58.799Z,5.18
2018-03-28T04:00:24.745Z,4.37
2018-03-28T04:02:51.473Z,4.30
2018-03-28T04:05:18.177Z,4.35
2018-03-28T04:07:44.157Z,4.53
2018-03-28T04:10:10.118Z,4.37
2018-03-28T04:12:36.244Z,7.50
2018-03-28T04:15:02.340Z,4.90
2018-03-28T04:17:28.449Z,4.00
2018-03-28T04:19:55.138Z,4.18
2018-03-28T04:22:21.101Z,4.15
2018-03-28T04:24:47.816Z,4.57
2018-03-28T04:27:13.768Z,4.37
2018-03-28T04:29:39.863Z,5.40
2018-03-28T04:32:05.816Z,5.15
2018-03-28T04:34:31.822Z,4.53
2018-03-28T04:36:58.530Z,4.68
2018-03-28T04:39:24.553Z,5.57
2018-03-28T04:41:50.501Z,5.85
2018-03-28T04:44:16.637Z,5.07
2018-03-28T04:46:43.353Z,4.65
2018-03-28T04:49:09.328Z,5.12
2018-03-28T04:51:35.309Z,5.78
2018-03-28T04:54:01.257Z,6.62
2018-03-28T04:56:27.213Z,8.17
2018-03-28T04:58:53.197Z,6.67
2018-03-28T05:01:20.053Z,5.87
2018-03-28T05:03:46.029Z,7.80
2018-03-28T05:06:11.978Z,6.50
2018-03-28T05:08:38.732Z,6.40
2018-03-28T05:11:04.697Z,7.53
2018-03-28T05:13:30.641Z,6.18
2018-03-28T05:15:56.759Z,9.07
2018-03-28T05:18:22.777Z,6.95
2018-03-28T05:20:48.728Z,7.18
2018-03-28T05:23:15.427Z,8.60
2018-03-28T05:25:41.517Z,7.60
2018-03-28T05:28:07.472Z,6.60
2018-03-28T05:30:33.460Z,7.20
2018-03-28T05:32:59.420Z,7.18
2018-03-28T05:35:25.510Z,6.40
2018-03-28T05:37:51.464Z,7.22
2018-03-28T05:40:17.453Z,10.83
2018-03-28T05:42:43.425Z,7.95
2018-03-28T05:45:09.422Z,7.00
2018-03-28T05:47:35.381Z,6.82
2018-03-28T05:50:01.340Z,7.00
2018-03-28T05:52:27.299Z,6.62
2018-03-28T05:54:53.264Z,9.80
2018-03-28T05:57:20.101Z,8.90
2018-03-28T05:59:46.785Z,9.82
2018-03-28T06:02:12.793Z,7.18
2018-03-28T06:04:38.784Z,7.20
2018-03-28T06:07:05.497Z,11.75
2018-03-28T06:09:31.448Z,6.07
2018-03-28T06:11:58.284Z,7.63
2018-03-28T06:14:24.360Z,8.05
2018-03-28T06:16:50.339Z,6.15
2018-03-28T06:19:16.333Z,6.40
2018-03-28T06:21:42.307Z,7.30
2018-03-28T06:24:08.380Z,7.75
2018-03-28T06:26:34.310Z,8.38
2018-03-28T06:29:00.403Z,7.18
2018-03-28T06:31:26.356Z,8.30
2018-03-28T06:33:52.340Z,6.17
2018-03-28T06:36:18.310Z,8.52
2018-03-28T06:38:44.322Z,8.73
2018-03-28T06:41:10.273Z,7.12
2018-03-28T06:43:36.347Z,9.80
2018-03-28T06:46:02.290Z,7.78
2018-03-28T06:48:28.265Z,7.53
2018-03-28T06:50:54.249Z,7.97
2018-03-28T06:53:20.977Z,7.85
2018-03-28T06:55:46.923Z,8.80
2018-03-28T06:58:12.922Z,8.93
2018-03-28T07:00:39.788Z,8.75
2018-03-28T07:03:06.505Z,8.45
2018-03-28T07:05:32.512Z,10.32
2018-03-28T07:07:58.503Z,8.02
2018-03-28T07:10:24.446Z,8.30
2018-03-28T07:12:50.433Z,9.20
2018-03-28T07:15:16.548Z,7.10
2018-03-28T07:17:42.654Z,7.35
2018-03-28T07:20:08.629Z,8.02
2018-03-28T07:22:34.633Z,8.57
2018-03-28T07:25:00.592Z,6.90
2018-03-28T07:27:26.604Z,6.97
2018-03-28T07:29:52.587Z,6.70
2018-03-28T07:32:18.540Z,7.80
2018-03-28T07:34:44.649Z,6.97
2018-03-28T07:37:10.602Z,8.85
2018-03-28T07:39:36.722Z,8.17
2018-03-28T07:42:02.693Z,10.18
2018-03-28T07:44:29.550Z,7.72
2018-03-28T07:46:55.511Z,7.18
2018-03-28T07:49:21.476Z,11.33
2018-03-28T07:51:48.208Z,7.78
2018-03-28T07:54:14.918Z,8.00
2018-03-28T07:56:40.908Z,7.20
2018-03-28T07:59:06.868Z,7.55
2018-03-28T08:01:32.961Z,7.30
2018-03-28T08:03:58.928Z,8.32
2018-03-28T08:06:24.939Z,11.85
2018-03-28T08:08:50.916Z,9.20
2018-03-28T08:11:16.853Z,9.93
2018-03-28T08:13:42.848Z,10.50
2018-03-28T08:16:09.676Z,11.32
2018-03-28T08:18:35.624Z,8.35
2018-03-28T08:21:01.729Z,9.63
2018-03-28T08:23:27.696Z,9.95
2018-03-28T08:25:53.672Z,10.30
2018-03-28T08:28:20.368Z,10.13
2018-03-28T08:30:46.308Z,8.48
2018-03-28T08:33:12.293Z,9.93
2018-03-28T08:35:38.251Z,8.57
2018-03-28T08:38:04.332Z,7.93
2018-03-28T08:40:30.281Z,12.37
2018-03-28T08:42:56.261Z,9.77
2018-03-28T08:45:22.224Z,10.50
2018-03-28T08:47:48.215Z,11.88
2018-03-28T08:50:14.176Z,12.57
2018-03-28T08:52:40.284Z,8.93
2018-03-28T08:55:06.242Z,8.93
2018-03-28T08:57:32.277Z,9.40
2018-03-28T08:59:58.997Z,11.32
2018-03-28T09:02:24.970Z,11.30
2018-03-28T09:04:50.904Z,12.80
2018-03-28T09:07:16.861Z,12.20
2018-03-28T09:09:42.953Z,10.33
2018-03-28T09:12:08.930Z,14.75
2018-03-28T09:14:35.920Z,13.02
2018-03-28T09:17:01.895Z,11.05
2018-03-28T09:19:27.919Z,10.90
2018-03-28T09:21:54.682Z,13.68
2018-03-28T09:24:20.801Z,14.35
2018-03-28T09:26:46.770Z,11.77
2018-03-28T09:29:12.748Z,12.75
2018-03-28T09:31:38.720Z,13.15
2018-03-28T09:34:04.663Z,12.40
2018-03-28T09:36:30.663Z,10.70
2018-03-28T09:38:56.620Z,18.05
2018-03-28T09:41:22.720Z,13.40
2018-03-28T09:43:48.673Z,16.15
2018-03-28T09:46:15.388Z,11.53
2018-03-28T09:48:41.342Z,22.58
2018-03-28T09:51:07.329Z,15.87
2018-03-28T09:53:33.264Z,11.02
2018-03-28T09:55:59.361Z,17.90
2018-03-28T09:58:25.460Z,11.65
2018-03-28T10:00:51.442Z,10.73
2018-03-28T10:03:18.178Z,9.52
2018-03-28T10:05:44.932Z,11.98
2018-03-28T10:08:11.620Z,10.27
2018-03-28T10:10:37.577Z,9.02
2018-03-28T10:13:03.514Z,9.10
2018-03-28T10:15:30.520Z,9.57
2018-03-28T10:17:56.515Z,7.87
2018-03-28T10:20:22.460Z,2.80
2018-03-28T10:22:48.448Z,7.27
2018-03-28T10:25:14.415Z,3.47
2018-03-28T10:27:40.547Z,3.10
2018-03-28T10:30:06.488Z,2.67
2018-03-28T10:32:33.378Z,3.87
2018-03-28T10:34:59.384Z,2.17
2018-03-28T10:37:25.348Z,2.78
2018-03-28T10:39:51.318Z,2.43
2018-03-28T10:42:17.301Z,3.47
2018-03-28T10:44:43.245Z,1.60
2018-03-28T10:47:10.089Z,1.73
2018-03-28T10:49:36.856Z,3.55
2018-03-28T10:52:02.852Z,2.85
2018-03-28T10:54:29.551Z,1.55
2018-03-28T10:56:55.503Z,1.40
2018-03-28T10:59:21.497Z,5.33
2018-03-28T11:01:47.440Z,1.75
2018-03-28T11:04:13.539Z,1.30
2018-03-28T11:06:39.487Z,1.60
2018-03-28T11:09:05.469Z,3.83
2018-03-28T11:11:31.451Z,2.20
2018-03-28T11:13:58.148Z,1.20
2018-03-28T11:16:24.311Z,1.70
2018-03-28T11:18:50.988Z,1.95
2018-03-28T11:21:16.940Z,1.20
2018-03-28T11:23:43.047Z,1.30
2018-03-28T11:26:08.996Z,1.40
2018-03-28T11:28:34.968Z,2.00
2018-03-28T11:31:00.944Z,1.97
2018-03-28T11:33:26.901Z,2.58
2018-03-28T11:35:53.017Z,1.37
2018-03-28T11:38:19.747Z,2.80
2018-03-28T11:40:46.656Z,3.00
2018-03-28T11:43:12.587Z,1.70
2018-03-28T11:45:38.565Z,2.60
2018-03-28T11:48:04.612Z,1.70
2018-03-28T11:50:30.733Z,1.65
2018-03-28T11:52:56.694Z,3.08
2018-03-28T11:55:22.656Z,1.50
2018-03-28T11:57:48.765Z,1.50
2018-03-28T12:00:15.481Z,1.50
2018-03-28T12:02:41.436Z,2.75
2018-03-28T12:05:07.397Z,1.70
2018-03-28T12:07:33.383Z,2.57
2018-03-28T12:09:59.340Z,3.25
2018-03-28T12:12:25.512Z,2.57
2018-03-28T12:14:52.424Z,2.25
2018-03-28T12:17:18.377Z,1.98
2018-03-28T12:19:44.344Z,2.70
2018-03-28T12:22:10.334Z,2.03
2018-03-28T12:24:36.333Z,1.98
2018-03-28T12:27:02.266Z,3.28
2018-03-28T12:29:29.164Z,2.10
2018-03-28T12:31:55.121Z,2.15
2018-03-28T12:34:21.104Z,2.23
2018-03-28T12:36:47.048Z,4.22
2018-03-28T12:39:13.060Z,2.33
2018-03-28T12:41:39.012Z,2.30
2018-03-28T12:44:04.964Z,2.07
2018-03-28T12:46:31.112Z,1.87
2018-03-28T12:48:57.078Z,1.70
2018-03-28T12:51:23.092Z,3.53
2018-03-28T12:53:49.072Z,2.33
2018-03-28T12:56:15.119Z,2.50
2018-03-28T12:58:41.085Z,4.57
2018-03-28T13:01:08.007Z,2.50
2018-03-28T13:03:33.964Z,2.62
2018-03-28T13:06:00.652Z,5.53
2018-03-28T13:08:26.647Z,3.55
2018-03-28T13:10:52.604Z,3.80
2018-03-28T13:13:18.565Z,2.70
2018-03-28T13:15:44.808Z,2.23
2018-03-28T13:18:10.765Z,2.65
2018-03-28T13:20:36.916Z,2.40
2018-03-28T13:23:02.848Z,2.75
2018-03-28T13:25:29.558Z,2.33
2018-03-28T13:27:55.617Z,3.20
2018-03-28T13:30:22.352Z,2.30
2018-03-28T13:32:49.254Z,2.60
2018-03-28T13:35:15.195Z,4.97
2018-03-28T13:37:41.164Z,2.53
2018-03-28T13:40:07.174Z,2.07
2018-03-28T13:42:33.888Z,2.80
2018-03-28T13:44:59.852Z,2.05
2018-03-28T13:47:25.788Z,3.10
2018-03-28T13:49:51.782Z,1.87
2018-03-28T13:52:18.472Z,2.00
2018-03-28T13:54:44.461Z,1.80
2018-03-28T13:57:10.469Z,6.18
2018-03-28T13:59:39.796Z,1.40
2018-03-28T14:02:07.921Z,1.65
2018-03-28T14:04:34.820Z,2.40
2018-03-28T14:07:00.828Z,1.90
2018-03-28T14:09:26.810Z,1.73
2018-03-28T14:11:52.736Z,2.45
2018-03-28T14:14:19.653Z,2.80
2018-03-28T14:16:45.638Z,1.40
2018-03-28T14:19:11.581Z,1.48
2018-03-28T14:21:37.591Z,1.73
2018-03-28T14:24:03.704Z,1.35
2018-03-28T14:26:29.716Z,1.40
2018-03-28T14:28:55.738Z,1.83
2018-03-28T14:31:22.457Z,1.50
2018-03-28T14:33:49.147Z,2.10
2018-03-28T14:36:15.365Z,1.83
2018-03-28T14:38:41.322Z,1.70
2018-03-28T14:41:07.267Z,2.13
2018-03-28T14:43:33.260Z,2.30
2018-03-28T14:45:59.258Z,7.45
2018-03-28T14:48:25.217Z,7.30
2018-03-28T14:50:51.184Z,4.80
2018-03-28T14:53:17.316Z,3.13
2018-03-28T14:55:43.249Z,1.90
2018-03-28T14:58:09.220Z,2.13
2018-03-28T15:00:35.164Z,1.80
2018-03-28T15:03:01.873Z,1.60
2018-03-28T15:05:27.849Z,1.80
2018-03-28T15:07:53.816Z,1.50
2018-03-28T15:10:20.009Z,1.50
2018-03-28T15:12:45.948Z,2.42
2018-03-28T15:15:12.148Z,1.97
2018-03-28T15:17:38.143Z,2.92
2018-03-28T15:20:04.092Z,2.60
2018-03-28T15:22:30.053Z,1.60
2018-03-28T15:24:55.995Z,2.40
2018-03-28T15:27:22.087Z,2.20
2018-03-28T15:29:48.040Z,2.20
2018-03-28T15:32:14.771Z,2.20
2018-03-28T15:34:40.724Z,1.83
2018-03-28T15:37:06.691Z,1.70
2018-03-28T15:39:32.687Z,1.83
2018-03-28T15:41:58.640Z,1.80
2018-03-28T15:44:24.739Z,2.03
2018-03-28T15:46:50.717Z,1.40
2018-03-28T15:49:17.440Z,6.70
2018-03-28T15:51:43.416Z,1.80
2018-03-28T15:54:09.443Z,1.80
2018-03-28T15:56:35.391Z,1.50
2018-03-28T15:59:01.496Z,1.93
2018-03-28T16:01:27.455Z,1.60
2018-03-28T16:03:53.399Z,1.40
2018-03-28T16:06:20.108Z,2.03
2018-03-28T16:08:46.132Z,1.70
2018-03-28T16:11:12.143Z,2.10
2018-03-28T16:13:38.116Z,1.50
2018-03-28T16:16:04.361Z,1.60
2018-03-28T16:18:30.305Z,4.60
2018-03-28T16:20:56.297Z,1.30
2018-03-28T16:23:22.269Z,1.67
2018-03-28T16:25:48.231Z,1.33
2018-03-28T16:28:14.228Z,2.72
2018-03-28T16:30:40.373Z,3.08
2018-03-28T16:33:07.072Z,1.73
2018-03-28T16:35:33.066Z,1.90
2018-03-28T16:37:59.028Z,1.92
2018-03-28T16:40:25.001Z,2.03
2018-03-28T16:42:50.977Z,1.50
2018-03-28T16:45:16.954Z,1.95
2018-03-28T16:47:43.128Z,2.33
2018-03-28T16:50:09.078Z,2.30
2018-03-28T16:52:35.815Z,2.37
2018-03-28T16:55:01.804Z,2.20
2018-03-28T16:57:27.793Z,1.58
2018-03-28T16:59:53.802Z,1.60
2018-03-28T17:02:19.769Z,1.80
2018-03-28T17:04:45.972Z,3.37
2018-03-28T17:07:11.920Z,4.32
2018-03-28T17:09:37.920Z,1.60
2018-03-28T17:12:03.892Z,1.80
2018-03-28T17:14:30.836Z,1.60
2018-03-28T17:16:57.543Z,1.77
2018-03-28T17:19:23.707Z,4.60
2018-03-28T17:21:49.658Z,1.37
2018-03-28T17:24:15.596Z,1.37
2018-03-28T17:26:41.574Z,1.37
2018-03-28T17:29:08.335Z,1.65
2018-03-28T17:31:34.287Z,4.40
2018-03-28T17:34:00.304Z,3.13
2018-03-28T17:36:26.425Z,2.22
2018-03-28T17:38:52.400Z,2.05
2018-03-28T17:41:19.153Z,2.08
2018-03-28T17:43:45.856Z,5.03
2018-03-28T17:46:11.845Z,1.73
2018-03-28T17:48:37.793Z,1.85
2018-03-28T17:51:03.903Z,1.73
2018-03-28T17:53:29.856Z,7.35
2018-03-28T17:55:55.869Z,1.80
2018-03-28T17:58:21.808Z,1.62
2018-03-28T18:00:47.785Z,1.70
2018-03-28T18:03:13.769Z,1.30
2018-03-28T18:05:40.469Z,2.12
2018-03-28T18:08:06.473Z,2.10
2018-03-28T18:10:32.437Z,2.00
2018-03-28T18:12:58.408Z,1.77
2018-03-28T18:15:28.130Z,2.67
2018-03-28T18:17:56.492Z,1.50
2018-03-28T18:20:22.454Z,1.62
2018-03-28T18:22:48.632Z,2.30
2018-03-28T18:25:14.591Z,1.45
2018-03-28T18:27:40.541Z,2.17
2018-03-28T18:30:06.513Z,2.33
2018-03-28T18:32:32.477Z,1.50
2018-03-28T18:34:58.443Z,2.30
2018-03-28T18:37:24.402Z,2.50
2018-03-28T18:39:50.569Z,1.80
2018-03-28T18:42:17.287Z,1.48
2018-03-28T18:44:43.250Z,1.75
2018-03-28T18:47:09.221Z,1.62
2018-03-28T18:49:35.160Z,1.80
2018-03-28T18:52:01.141Z,2.27
2018-03-28T18:54:27.113Z,2.00
2018-03-28T18:56:53.818Z,1.77
2018-03-28T18:59:27.338Z,4.82
2018-03-28T19:02:00.862Z,1.50
2018-03-28T19:04:35.518Z,1.52
2018-03-28T19:07:09.246Z,1.60
2018-03-28T19:09:35.440Z,1.58
2018-03-28T19:12:01.407Z,2.22
2018-03-28T19:14:27.607Z,1.33
2018-03-28T19:16:53.579Z,1.30
2018-03-28T19:19:20.296Z,1.62
2018-03-28T19:21:46.309Z,1.42
2018-03-28T19:24:12.288Z,1.95
2018-03-28T19:26:38.477Z,1.40
2018-03-28T19:29:04.463Z,1.60
2018-03-28T19:31:30.567Z,1.40
2018-03-28T19:33:56.513Z,1.35
2018-03-28T19:36:22.504Z,1.40
2018-03-28T19:38:48.486Z,1.95
2018-03-28T19:41:14.571Z,1.30
2018-03-28T19:43:40.522Z,1.60
2018-03-28T19:46:06.744Z,1.33
2018-03-28T19:48:32.706Z,3.30
2018-03-28T19:50:58.692Z,1.55
2018-03-28T19:53:24.631Z,1.50
2018-03-28T19:55:50.581Z,3.00
2018-03-28T19:58:16.728Z,1.40
2018-03-28T20:00:42.676Z,2.58
2018-03-28T20:03:08.684Z,1.40
2018-03-28T20:05:34.610Z,1.55
2018-03-28T20:08:00.593Z,1.73
2018-03-28T20:10:27.298Z,1.73
2018-03-28T20:12:53.322Z,1.90
2018-03-28T20:15:19.413Z,5.32
2018-03-28T20:17:45.523Z,1.70
2018-03-28T20:20:11.494Z,1.65
2018-03-28T20:22:37.508Z,1.90
2018-03-28T20:25:03.510Z,1.90
2018-03-28T20:27:29.486Z,1.30
2018-03-28T20:29:56.357Z,2.30
2018-03-28T20:32:22.301Z,1.40
2018-03-28T20:34:48.284Z,1.40
2018-03-28T20:37:15.002Z,1.48
2018-03-28T20:39:40.943Z,1.48
2018-03-28T20:42:07.672Z,1.50
2018-03-28T20:44:34.417Z,2.28
2018-03-28T20:47:01.287Z,1.70
2018-03-28T20:49:27.334Z,1.58
2018-03-28T20:51:53.281Z,1.70
2018-03-28T20:54:19.253Z,1.67
2018-03-28T20:56:45.220Z,1.70
2018-03-28T20:59:11.221Z,1.60
2018-03-28T21:01:37.209Z,2.28
2018-03-28T21:04:03.157Z,2.10
2018-03-28T21:06:29.113Z,1.90
2018-03-28T21:08:55.206Z,10.93
2018-03-28T21:11:21.160Z,2.37
2018-03-28T21:13:47.793Z,2.00
2018-03-28T21:16:13.901Z,2.10
2018-03-28T21:18:39.979Z,2.40
2018-03-28T21:21:06.664Z,2.72
2018-03-28T21:23:32.636Z,2.70
2018-03-28T21:25:59.332Z,3.05
2018-03-28T21:28:25.316Z,2.75
2018-03-28T21:30:51.245Z,2.83
2018-03-28T21:33:17.330Z,3.00
2018-03-28T21:35:44.059Z,3.40
2018-03-28T21:38:09.995Z,3.28
2018-03-28T21:40:36.000Z,3.50
2018-03-28T21:43:01.968Z,3.70
2018-03-28T21:45:27.980Z,4.03
2018-03-28T21:47:53.917Z,3.78
2018-03-28T21:50:19.873Z,4.63
2018-03-28T21:52:45.813Z,4.60
2018-03-28T21:55:11.941Z,4.20
2018-03-28T21:57:37.916Z,5.12
2018-03-28T22:00:03.911Z,3.67
2018-03-28T22:02:30.587Z,5.00
2018-03-28T22:04:56.544Z,4.47
2018-03-28T22:07:22.524Z,4.13
2018-03-28T22:09:48.461Z,4.20
2018-03-28T22:12:14.557Z,3.40
2018-03-28T22:14:40.648Z,3.00
2018-03-28T22:17:06.607Z,3.50
2018-03-28T22:19:32.596Z,5.12
2018-03-28T22:21:58.711Z,3.35
2018-03-28T22:24:24.668Z,3.85
2018-03-28T22:26:50.645Z,3.67
2018-03-28T22:29:16.720Z,3.60
2018-03-28T22:31:42.664Z,3.35
2018-03-28T22:34:08.648Z,4.13
2018-03-28T22:36:35.343Z,3.33
2018-03-28T22:39:01.317Z,2.80
2018-03-28T22:41:27.252Z,4.22
2018-03-28T22:43:53.338Z,3.30
2018-03-28T22:46:19.285Z,3.65
2018-03-28T22:48:45.241Z,3.47
2018-03-28T22:51:11.212Z,3.37
2018-03-28T22:53:37.896Z,3.58
2018-03-28T22:56:03.977Z,2.90
2018-03-28T22:58:30.668Z,3.20
2018-03-28T23:00:56.645Z,3.15
2018-03-28T23:03:23.366Z,3.10
2018-03-28T23:05:49.352Z,3.42
2018-03-28T23:08:15.304Z,3.62
2018-03-28T23:10:41.242Z,3.57
2018-03-28T23:13:08.060Z,3.30
2018-03-28T23:15:34.133Z,3.37
2018-03-28T23:18:00.138Z,3.25
2018-03-28T23:20:26.812Z,2.75
2018-03-28T23:22:52.767Z,3.10
2018-03-28T23:25:18.718Z,3.28
2018-03-28T23:27:44.695Z,3.50
2018-03-28T23:30:10.636Z,3.83
2018-03-28T23:32:36.591Z,3.43
2018-03-28T23:35:02.696Z,3.33
2018-03-28T23:37:28.675Z,3.60
2018-03-28T23:39:54.661Z,3.60
2018-03-28T23:42:21.403Z,3.40
2018-03-28T23:44:47.326Z,3.58
2018-03-28T23:47:14.004Z,3.35
2018-03-28T23:49:40.136Z,3.80
2018-03-28T23:52:06.072Z,3.10
2018-03-28T23:54:32.015Z,3.47
2018-03-28T23:56:58.709Z,3.37
2018-03-28T23:59:24.632Z,3.37
